sensor_id;sensor_type;location;lat;lon;timestamp;pressure;altitude;pressure_sealevel;temperature;humidity
48680;BME280;34475;51.658;5.634;2023-03-03T00:00:00;102180;;;1.8;100.0
48680;BME280;34475;51.658;5.634;2023-03-03T00:01:00;102180;;;1.8;100.0
48680;BME280;34475;51.658;5.634;2023-03-03T00:02:00;102190;;;1.7;100.0
48680;BME280;34475;51.658;5.634;2023-03-03T00:03:01;102190;;;1.7;100.0
48680;BME280;34475;51.658;5.634;2023-03-03T00:04:00;102190;;;1.6;100.0
48680;BME280;34475;51.658;5.634;2023-03-03T00:05:00;102190;;;1.6;100.0
48680;BME280;34475;51.658;5.634;2023-03-03T00:06:01;102190;;;1.7;100.0
48680;BME280;34475;51.658;5.634;2023-03-03T00:07:00;102190;;;1.7;100.0
48680;BME280;34475;51.658;5.634;2023-03-03T00:08:00;102190;;;1.7;100.0
48680;BME280;34475;51.658;5.634;2023-03-03T00:09:00;102190;;;1.7;100.0
48680;BME280;34475;51.658;5.634;2023-03-03T00:10:00;102190;;;1.8;100.0
48680;BME280;34475;51.658;5.634;2023-03-03T00:11:00;102190;;;1.8;100.0
48680;BME280;34475;51.658;5.634;2023-03-03T00:12:00;102190;;;1.8;100.0
48680;BME280;34475;51.658;5.634;2023-03-03T00:13:00;102190;;;1.8;100.0
48680;BME280;34475;51.658;5.634;2023-03-03T00:14:00;102200;;;1.8;100.0
48680;BME280;34475;51.658;5.634;2023-03-03T00:15:00;102200;;;1.8;100.0
48680;BME280;34475;51.658;5.634;2023-03-03T00:16:09;102200;;;1.9;100.0
48680;BME280;34475;51.658;5.634;2023-03-03T00:17:00;102200;;;1.9;100.0
48680;BME280;34475;51.658;5.634;2023-03-03T00:18:00;102200;;;1.9;100.0
48680;BME280;34475;51.658;5.634;2023-03-03T00:19:00;102200;;;1.9;100.0
48680;BME280;34475;51.658;5.634;2023-03-03T00:20:00;102200;;;1.8;100.0
48680;BME280;34475;51.658;5.634;2023-03-03T00:21:01;102200;;;1.8;100.0
48680;BME280;34475;51.658;5.634;2023-03-03T00:22:00;102200;;;1.8;100.0
48680;BME280;34475;51.658;5.634;2023-03-03T00:23:08;102200;;;1.8;100.0
48680;BME280;34475;51.658;5.634;2023-03-03T00:25:18;102200;;;1.8;100.0
48680;BME280;34475;51.658;5.634;2023-03-03T00:26:00;102190;;;1.9;100.0
48680;BME280;34475;51.658;5.634;2023-03-03T00:27:00;102190;;;1.9;100.0
48680;BME280;34475;51.658;5.634;2023-03-03T00:28:31;102200;;;1.9;100.0
48680;BME280;34475;51.658;5.634;2023-03-03T00:29:00;102200;;;1.9;100.0
48680;BME280;34475;51.658;5.634;2023-03-03T00:30:00;102200;;;1.7;100.0
48680;BME280;34475;51.658;5.634;2023-03-03T00:31:00;102200;;;1.7;100.0
48680;BME280;34475;51.658;5.634;2023-03-03T00:32:08;102200;;;1.7;100.0
48680;BME280;34475;51.658;5.634;2023-03-03T00:33:00;102200;;;1.7;100.0
48680;BME280;34475;51.658;5.634;2023-03-03T00:34:17;102200;;;1.5;100.0
48680;BME280;34475;51.658;5.634;2023-03-03T00:35:01;102200;;;1.5;100.0
48680;BME280;34475;51.658;5.634;2023-03-03T00:37:00;102200;;;1.7;100.0
48680;BME280;34475;51.658;5.634;2023-03-03T00:38:01;102200;;;1.8;100.0
48680;BME280;34475;51.658;5.634;2023-03-03T00:39:10;102200;;;1.8;100.0
48680;BME280;34475;51.658;5.634;2023-03-03T00:40:18;102200;;;1.9;100.0
48680;BME280;34475;51.658;5.634;2023-03-03T00:41:00;102200;;;1.9;100.0
48680;BME280;34475;51.658;5.634;2023-03-03T00:42:00;102210;;;1.6;100.0
48680;BME280;34475;51.658;5.634;2023-03-03T00:43:00;102210;;;1.6;100.0
48680;BME280;34475;51.658;5.634;2023-03-03T00:44:00;102200;;;1.8;100.0
48680;BME280;34475;51.658;5.634;2023-03-03T00:45:00;102200;;;1.8;100.0
48680;BME280;34475;51.658;5.634;2023-03-03T00:46:00;102210;;;1.7;100.0
48680;BME280;34475;51.658;5.634;2023-03-03T00:47:01;102210;;;1.7;100.0
48680;BME280;34475;51.658;5.634;2023-03-03T00:48:07;102210;;;1.5;100.0
48680;BME280;34475;51.658;5.634;2023-03-03T00:49:21;102210;;;1.5;100.0
48680;BME280;34475;51.658;5.634;2023-03-03T00:51:00;102210;;;1.4;100.0
48680;BME280;34475;51.658;5.634;2023-03-03T00:52:00;102210;;;1.3;100.0
48680;BME280;34475;51.658;5.634;2023-03-03T00:53:16;102210;;;1.3;100.0
48680;BME280;34475;51.658;5.634;2023-03-03T00:54:00;102210;;;1.2;100.0
48680;BME280;34475;51.658;5.634;2023-03-03T00:55:00;102210;;;1.2;100.0
48680;BME280;34475;51.658;5.634;2023-03-03T00:56:00;102210;;;1.1;100.0
48680;BME280;34475;51.658;5.634;2023-03-03T00:57:00;102210;;;1.1;100.0
48680;BME280;34475;51.658;5.634;2023-03-03T00:58:00;102210;;;1.2;100.0
48680;BME280;34475;51.658;5.634;2023-03-03T00:59:00;102210;;;1.2;100.0
48680;BME280;34475;51.658;5.634;2023-03-03T01:00:00;102210;;;1.2;100.0
48680;BME280;34475;51.658;5.634;2023-03-03T01:01:00;102210;;;1.2;100.0
48680;BME280;34475;51.658;5.634;2023-03-03T01:02:00;102220;;;1.3;100.0
48680;BME280;34475;51.658;5.634;2023-03-03T01:03:01;102220;;;1.3;100.0
48680;BME280;34475;51.658;5.634;2023-03-03T01:04:00;102220;;;1.2;100.0
48680;BME280;34475;51.658;5.634;2023-03-03T01:05:00;102220;;;1.2;100.0
48680;BME280;34475;51.658;5.634;2023-03-03T01:06:00;102220;;;1.2;100.0
48680;BME280;34475;51.658;5.634;2023-03-03T01:07:00;102220;;;1.2;100.0
48680;BME280;34475;51.658;5.634;2023-03-03T01:08:00;102220;;;0.9;100.0
48680;BME280;34475;51.658;5.634;2023-03-03T01:09:00;102220;;;0.9;100.0
48680;BME280;34475;51.658;5.634;2023-03-03T01:10:00;102220;;;0.9;100.0
48680;BME280;34475;51.658;5.634;2023-03-03T01:11:05;102220;;;0.9;100.0
48680;BME280;34475;51.658;5.634;2023-03-03T01:12:00;102220;;;1.0;100.0
48680;BME280;34475;51.658;5.634;2023-03-03T01:13:00;102220;;;1.0;100.0
48680;BME280;34475;51.658;5.634;2023-03-03T01:14:00;102230;;;1.2;100.0
48680;BME280;34475;51.658;5.634;2023-03-03T01:15:00;102230;;;1.2;100.0
48680;BME280;34475;51.658;5.634;2023-03-03T01:16:00;102230;;;1.3;100.0
48680;BME280;34475;51.658;5.634;2023-03-03T01:17:00;102230;;;1.3;100.0
48680;BME280;34475;51.658;5.634;2023-03-03T01:18:00;102230;;;1.4;100.0
48680;BME280;34475;51.658;5.634;2023-03-03T01:19:00;102230;;;1.4;100.0
48680;BME280;34475;51.658;5.634;2023-03-03T01:20:00;102230;;;1.3;100.0
48680;BME280;34475;51.658;5.634;2023-03-03T01:21:00;102230;;;1.3;100.0
48680;BME280;34475;51.658;5.634;2023-03-03T01:22:00;102230;;;1.2;100.0
48680;BME280;34475;51.658;5.634;2023-03-03T01:23:00;102230;;;1.2;100.0
48680;BME280;34475;51.658;5.634;2023-03-03T01:24:00;102240;;;1.1;100.0
48680;BME280;34475;51.658;5.634;2023-03-03T01:25:00;102240;;;1.1;100.0
48680;BME280;34475;51.658;5.634;2023-03-03T01:26:00;102240;;;1.3;100.0
48680;BME280;34475;51.658;5.634;2023-03-03T01:27:00;102240;;;1.3;100.0
48680;BME280;34475;51.658;5.634;2023-03-03T01:28:00;102230;;;1.4;100.0
48680;BME280;34475;51.658;5.634;2023-03-03T01:29:00;102230;;;1.4;100.0
48680;BME280;34475;51.658;5.634;2023-03-03T01:30:00;102240;;;1.3;100.0
48680;BME280;34475;51.658;5.634;2023-03-03T01:31:00;102240;;;1.3;100.0
48680;BME280;34475;51.658;5.634;2023-03-03T01:32:00;102240;;;1.2;100.0
48680;BME280;34475;51.658;5.634;2023-03-03T01:33:00;102240;;;1.2;100.0
48680;BME280;34475;51.658;5.634;2023-03-03T01:34:00;102240;;;1.4;100.0
48680;BME280;34475;51.658;5.634;2023-03-03T01:35:00;102240;;;1.4;100.0
48680;BME280;34475;51.658;5.634;2023-03-03T01:36:00;102230;;;1.5;100.0
48680;BME280;34475;51.658;5.634;2023-03-03T01:37:00;102230;;;1.5;100.0
48680;BME280;34475;51.658;5.634;2023-03-03T01:38:00;102230;;;1.6;100.0
48680;BME280;34475;51.658;5.634;2023-03-03T01:39:00;102230;;;1.6;100.0
48680;BME280;34475;51.658;5.634;2023-03-03T01:40:00;102230;;;1.7;100.0
48680;BME280;34475;51.658;5.634;2023-03-03T01:41:00;102230;;;1.7;100.0
48680;BME280;34475;51.658;5.634;2023-03-03T01:42:01;102230;;;1.6;100.0
48680;BME280;34475;51.658;5.634;2023-03-03T01:43:00;102230;;;1.6;100.0
48680;BME280;34475;51.658;5.634;2023-03-03T01:44:00;102230;;;1.5;100.0
48680;BME280;34475;51.658;5.634;2023-03-03T01:45:09;102230;;;1.5;100.0
48680;BME280;34475;51.658;5.634;2023-03-03T01:47:04;102230;;;1.5;100.0
48680;BME280;34475;51.658;5.634;2023-03-03T01:48:00;102240;;;1.4;100.0
48680;BME280;34475;51.658;5.634;2023-03-03T01:49:02;102240;;;1.4;100.0
48680;BME280;34475;51.658;5.634;2023-03-03T01:50:03;102240;;;1.3;100.0
48680;BME280;34475;51.658;5.634;2023-03-03T01:51:01;102240;;;1.3;100.0
48680;BME280;34475;51.658;5.634;2023-03-03T01:52:01;102240;;;1.1;100.0
48680;BME280;34475;51.658;5.634;2023-03-03T01:53:02;102240;;;1.1;100.0
48680;BME280;34475;51.658;5.634;2023-03-03T01:54:01;102240;;;1.2;100.0
48680;BME280;34475;51.658;5.634;2023-03-03T01:55:02;102240;;;1.2;100.0
48680;BME280;34475;51.658;5.634;2023-03-03T01:56:00;102240;;;1.3;100.0
48680;BME280;34475;51.658;5.634;2023-03-03T01:57:01;102240;;;1.3;100.0
48680;BME280;34475;51.658;5.634;2023-03-03T01:58:02;102240;;;1.1;100.0
48680;BME280;34475;51.658;5.634;2023-03-03T01:59:01;102240;;;1.1;100.0
48680;BME280;34475;51.658;5.634;2023-03-03T02:00:00;102240;;;1.1;100.0
48680;BME280;34475;51.658;5.634;2023-03-03T02:01:01;102240;;;1.1;100.0
48680;BME280;34475;51.658;5.634;2023-03-03T02:02:00;102240;;;1.1;100.0
48680;BME280;34475;51.658;5.634;2023-03-03T02:03:00;102240;;;1.1;100.0
48680;BME280;34475;51.658;5.634;2023-03-03T02:04:00;102240;;;1.1;100.0
48680;BME280;34475;51.658;5.634;2023-03-03T02:05:00;102240;;;1.1;100.0
48680;BME280;34475;51.658;5.634;2023-03-03T02:06:02;102240;;;1.2;100.0
48680;BME280;34475;51.658;5.634;2023-03-03T02:07:02;102240;;;1.2;100.0
48680;BME280;34475;51.658;5.634;2023-03-03T02:08:00;102240;;;1.2;100.0
48680;BME280;34475;51.658;5.634;2023-03-03T02:09:17;102240;;;1.2;100.0
48680;BME280;34475;51.658;5.634;2023-03-03T02:10:04;102250;;;1.3;100.0
48680;BME280;34475;51.658;5.634;2023-03-03T02:11:00;102250;;;1.3;100.0
48680;BME280;34475;51.658;5.634;2023-03-03T02:12:01;102240;;;1.4;100.0
48680;BME280;34475;51.658;5.634;2023-03-03T02:13:00;102240;;;1.4;100.0
48680;BME280;34475;51.658;5.634;2023-03-03T02:14:00;102240;;;1.2;100.0
48680;BME280;34475;51.658;5.634;2023-03-03T02:15:00;102240;;;1.2;100.0
48680;BME280;34475;51.658;5.634;2023-03-03T02:16:00;102240;;;1.4;100.0
48680;BME280;34475;51.658;5.634;2023-03-03T02:17:00;102240;;;1.4;100.0
48680;BME280;34475;51.658;5.634;2023-03-03T02:18:02;102240;;;1.3;100.0
48680;BME280;34475;51.658;5.634;2023-03-03T02:19:00;102240;;;1.3;100.0
48680;BME280;34475;51.658;5.634;2023-03-03T02:20:11;102240;;;1.2;100.0
48680;BME280;34475;51.658;5.634;2023-03-03T02:21:02;102240;;;1.2;100.0
48680;BME280;34475;51.658;5.634;2023-03-03T02:22:00;102240;;;1.2;100.0
48680;BME280;34475;51.658;5.634;2023-03-03T02:25:01;102240;;;1.2;100.0
48680;BME280;34475;51.658;5.634;2023-03-03T02:26:03;102250;;;1.1;100.0
48680;BME280;34475;51.658;5.634;2023-03-03T02:27:00;102250;;;1.1;100.0
48680;BME280;34475;51.658;5.634;2023-03-03T02:28:00;102250;;;1.0;100.0
48680;BME280;34475;51.658;5.634;2023-03-03T02:29:00;102250;;;1.0;100.0
48680;BME280;34475;51.658;5.634;2023-03-03T02:30:17;102240;;;0.9;100.0
48680;BME280;34475;51.658;5.634;2023-03-03T02:31:00;102240;;;0.9;100.0
48680;BME280;34475;51.658;5.634;2023-03-03T02:32:00;102240;;;1.0;100.0
48680;BME280;34475;51.658;5.634;2023-03-03T02:33:00;102240;;;1.0;100.0
48680;BME280;34475;51.658;5.634;2023-03-03T02:34:00;102250;;;1.0;100.0
48680;BME280;34475;51.658;5.634;2023-03-03T02:35:00;102250;;;1.0;100.0
48680;BME280;34475;51.658;5.634;2023-03-03T02:36:00;102240;;;1.0;100.0
48680;BME280;34475;51.658;5.634;2023-03-03T02:37:00;102240;;;1.0;100.0
48680;BME280;34475;51.658;5.634;2023-03-03T02:38:04;102240;;;1.0;100.0
48680;BME280;34475;51.658;5.634;2023-03-03T02:40:00;102240;;;1.1;100.0
48680;BME280;34475;51.658;5.634;2023-03-03T02:42:01;102240;;;1.2;100.0
48680;BME280;34475;51.658;5.634;2023-03-03T02:43:00;102240;;;1.2;100.0
48680;BME280;34475;51.658;5.634;2023-03-03T02:45:00;102240;;;1.2;100.0
48680;BME280;34475;51.658;5.634;2023-03-03T02:46:00;102240;;;1.2;100.0
48680;BME280;34475;51.658;5.634;2023-03-03T02:47:00;102240;;;1.2;100.0
48680;BME280;34475;51.658;5.634;2023-03-03T02:48:00;102240;;;1.2;100.0
48680;BME280;34475;51.658;5.634;2023-03-03T02:49:00;102240;;;1.2;100.0
48680;BME280;34475;51.658;5.634;2023-03-03T02:50:00;102240;;;1.1;100.0
48680;BME280;34475;51.658;5.634;2023-03-03T02:51:00;102240;;;1.1;100.0
48680;BME280;34475;51.658;5.634;2023-03-03T02:52:01;102240;;;1.1;100.0
48680;BME280;34475;51.658;5.634;2023-03-03T02:53:00;102240;;;1.1;100.0
48680;BME280;34475;51.658;5.634;2023-03-03T02:54:00;102230;;;1.2;100.0
48680;BME280;34475;51.658;5.634;2023-03-03T02:55:00;102230;;;1.2;100.0
48680;BME280;34475;51.658;5.634;2023-03-03T02:56:00;102230;;;1.2;100.0
48680;BME280;34475;51.658;5.634;2023-03-03T02:57:00;102230;;;1.2;100.0
48680;BME280;34475;51.658;5.634;2023-03-03T02:58:00;102230;;;1.1;100.0
48680;BME280;34475;51.658;5.634;2023-03-03T02:59:00;102230;;;1.1;100.0
48680;BME280;34475;51.658;5.634;2023-03-03T03:00:00;102240;;;1.2;100.0
48680;BME280;34475;51.658;5.634;2023-03-03T03:01:00;102240;;;1.2;100.0
48680;BME280;34475;51.658;5.634;2023-03-03T03:02:00;102240;;;1.0;100.0
48680;BME280;34475;51.658;5.634;2023-03-03T03:03:00;102240;;;1.0;100.0
48680;BME280;34475;51.658;5.634;2023-03-03T03:04:00;102240;;;1.0;100.0
48680;BME280;34475;51.658;5.634;2023-03-03T03:05:00;102240;;;1.0;100.0
48680;BME280;34475;51.658;5.634;2023-03-03T03:06:00;102230;;;0.9;100.0
48680;BME280;34475;51.658;5.634;2023-03-03T03:07:00;102230;;;0.9;100.0
48680;BME280;34475;51.658;5.634;2023-03-03T03:08:00;102240;;;0.8;100.0
48680;BME280;34475;51.658;5.634;2023-03-03T03:09:00;102240;;;0.8;100.0
48680;BME280;34475;51.658;5.634;2023-03-03T03:10:00;102240;;;0.8;100.0
48680;BME280;34475;51.658;5.634;2023-03-03T03:11:00;102240;;;0.8;100.0
48680;BME280;34475;51.658;5.634;2023-03-03T03:12:00;102240;;;0.8;100.0
48680;BME280;34475;51.658;5.634;2023-03-03T03:13:00;102240;;;0.8;100.0
48680;BME280;34475;51.658;5.634;2023-03-03T03:14:00;102240;;;0.9;100.0
48680;BME280;34475;51.658;5.634;2023-03-03T03:15:00;102240;;;0.9;100.0
48680;BME280;34475;51.658;5.634;2023-03-03T03:16:00;102250;;;1.0;100.0
48680;BME280;34475;51.658;5.634;2023-03-03T03:17:00;102250;;;1.0;100.0
48680;BME280;34475;51.658;5.634;2023-03-03T03:18:00;102240;;;1.0;100.0
48680;BME280;34475;51.658;5.634;2023-03-03T03:19:00;102240;;;1.0;100.0
48680;BME280;34475;51.658;5.634;2023-03-03T03:20:00;102240;;;0.9;100.0
48680;BME280;34475;51.658;5.634;2023-03-03T03:21:08;102240;;;0.9;100.0
48680;BME280;34475;51.658;5.634;2023-03-03T03:22:00;102250;;;0.8;100.0
48680;BME280;34475;51.658;5.634;2023-03-03T03:23:00;102250;;;0.8;100.0
48680;BME280;34475;51.658;5.634;2023-03-03T03:24:00;102250;;;0.8;100.0
48680;BME280;34475;51.658;5.634;2023-03-03T03:25:00;102250;;;0.8;100.0
48680;BME280;34475;51.658;5.634;2023-03-03T03:26:00;102250;;;0.9;100.0
48680;BME280;34475;51.658;5.634;2023-03-03T03:27:00;102250;;;0.9;100.0
48680;BME280;34475;51.658;5.634;2023-03-03T03:28:00;102250;;;0.9;100.0
48680;BME280;34475;51.658;5.634;2023-03-03T03:29:00;102250;;;0.9;100.0
48680;BME280;34475;51.658;5.634;2023-03-03T03:30:00;102250;;;0.9;100.0
48680;BME280;34475;51.658;5.634;2023-03-03T03:31:00;102250;;;0.9;100.0
48680;BME280;34475;51.658;5.634;2023-03-03T03:32:00;102250;;;0.7;100.0
48680;BME280;34475;51.658;5.634;2023-03-03T03:33:00;102250;;;0.7;100.0
48680;BME280;34475;51.658;5.634;2023-03-03T03:34:00;102250;;;0.8;100.0
48680;BME280;34475;51.658;5.634;2023-03-03T03:35:00;102250;;;0.8;100.0
48680;BME280;34475;51.658;5.634;2023-03-03T03:36:00;102250;;;0.8;100.0
48680;BME280;34475;51.658;5.634;2023-03-03T03:37:00;102250;;;0.8;100.0
48680;BME280;34475;51.658;5.634;2023-03-03T03:38:00;102250;;;0.8;100.0
48680;BME280;34475;51.658;5.634;2023-03-03T03:39:00;102250;;;0.8;100.0
48680;BME280;34475;51.658;5.634;2023-03-03T03:40:00;102250;;;0.8;100.0
48680;BME280;34475;51.658;5.634;2023-03-03T03:41:00;102250;;;0.8;100.0
48680;BME280;34475;51.658;5.634;2023-03-03T03:42:00;102260;;;0.6;100.0
48680;BME280;34475;51.658;5.634;2023-03-03T03:43:00;102260;;;0.6;100.0
48680;BME280;34475;51.658;5.634;2023-03-03T03:44:00;102250;;;0.7;100.0
48680;BME280;34475;51.658;5.634;2023-03-03T03:45:00;102250;;;0.7;100.0
48680;BME280;34475;51.658;5.634;2023-03-03T03:46:00;102250;;;0.7;100.0
48680;BME280;34475;51.658;5.634;2023-03-03T03:47:00;102250;;;0.7;100.0
48680;BME280;34475;51.658;5.634;2023-03-03T03:48:00;102250;;;0.7;100.0
48680;BME280;34475;51.658;5.634;2023-03-03T03:49:00;102250;;;0.7;100.0
48680;BME280;34475;51.658;5.634;2023-03-03T03:50:00;102260;;;0.9;100.0
48680;BME280;34475;51.658;5.634;2023-03-03T03:51:00;102260;;;0.9;100.0
48680;BME280;34475;51.658;5.634;2023-03-03T03:52:00;102250;;;0.8;100.0
48680;BME280;34475;51.658;5.634;2023-03-03T03:53:00;102250;;;0.8;100.0
48680;BME280;34475;51.658;5.634;2023-03-03T03:54:00;102250;;;0.6;100.0
48680;BME280;34475;51.658;5.634;2023-03-03T03:55:00;102250;;;0.6;100.0
48680;BME280;34475;51.658;5.634;2023-03-03T03:56:00;102250;;;0.5;100.0
48680;BME280;34475;51.658;5.634;2023-03-03T03:57:00;102250;;;0.5;100.0
48680;BME280;34475;51.658;5.634;2023-03-03T03:58:00;102260;;;0.6;100.0
48680;BME280;34475;51.658;5.634;2023-03-03T03:59:00;102260;;;0.6;100.0
48680;BME280;34475;51.658;5.634;2023-03-03T04:00:00;102250;;;0.6;100.0
48680;BME280;34475;51.658;5.634;2023-03-03T04:01:01;102250;;;0.6;100.0
48680;BME280;34475;51.658;5.634;2023-03-03T04:02:00;102250;;;0.6;100.0
48680;BME280;34475;51.658;5.634;2023-03-03T04:03:00;102250;;;0.6;100.0
48680;BME280;34475;51.658;5.634;2023-03-03T04:04:00;102260;;;0.6;100.0
48680;BME280;34475;51.658;5.634;2023-03-03T04:05:00;102260;;;0.6;100.0
48680;BME280;34475;51.658;5.634;2023-03-03T04:06:00;102250;;;0.8;100.0
48680;BME280;34475;51.658;5.634;2023-03-03T04:07:00;102250;;;0.8;100.0
48680;BME280;34475;51.658;5.634;2023-03-03T04:08:00;102260;;;1.0;100.0
48680;BME280;34475;51.658;5.634;2023-03-03T04:09:00;102260;;;1.0;100.0
48680;BME280;34475;51.658;5.634;2023-03-03T04:10:00;102260;;;1.0;100.0
48680;BME280;34475;51.658;5.634;2023-03-03T04:11:00;102260;;;1.0;100.0
48680;BME280;34475;51.658;5.634;2023-03-03T04:12:00;102260;;;1.0;100.0
48680;BME280;34475;51.658;5.634;2023-03-03T04:13:00;102260;;;1.0;100.0
48680;BME280;34475;51.658;5.634;2023-03-03T04:14:00;102260;;;1.0;100.0
48680;BME280;34475;51.658;5.634;2023-03-03T04:15:00;102260;;;1.0;100.0
48680;BME280;34475;51.658;5.634;2023-03-03T04:16:00;102260;;;1.0;100.0
48680;BME280;34475;51.658;5.634;2023-03-03T04:17:00;102260;;;1.0;100.0
48680;BME280;34475;51.658;5.634;2023-03-03T04:18:00;102260;;;0.9;100.0
48680;BME280;34475;51.658;5.634;2023-03-03T04:19:00;102260;;;0.9;100.0
48680;BME280;34475;51.658;5.634;2023-03-03T04:20:00;102260;;;0.7;100.0
48680;BME280;34475;51.658;5.634;2023-03-03T04:21:00;102260;;;0.7;100.0
48680;BME280;34475;51.658;5.634;2023-03-03T04:22:00;102250;;;0.7;100.0
48680;BME280;34475;51.658;5.634;2023-03-03T04:23:00;102250;;;0.7;100.0
48680;BME280;34475;51.658;5.634;2023-03-03T04:24:00;102250;;;0.7;100.0
48680;BME280;34475;51.658;5.634;2023-03-03T04:25:01;102250;;;0.7;100.0
48680;BME280;34475;51.658;5.634;2023-03-03T04:26:00;102260;;;0.8;100.0
48680;BME280;34475;51.658;5.634;2023-03-03T04:27:00;102260;;;0.8;100.0
48680;BME280;34475;51.658;5.634;2023-03-03T04:28:00;102260;;;0.9;100.0
48680;BME280;34475;51.658;5.634;2023-03-03T04:29:00;102260;;;0.9;100.0
48680;BME280;34475;51.658;5.634;2023-03-03T04:30:00;102260;;;1.0;100.0
48680;BME280;34475;51.658;5.634;2023-03-03T04:31:00;102260;;;1.0;100.0
48680;BME280;34475;51.658;5.634;2023-03-03T04:32:00;102260;;;1.0;100.0
48680;BME280;34475;51.658;5.634;2023-03-03T04:33:00;102260;;;1.0;100.0
48680;BME280;34475;51.658;5.634;2023-03-03T04:34:00;102260;;;1.0;100.0
48680;BME280;34475;51.658;5.634;2023-03-03T04:35:00;102260;;;1.0;100.0
48680;BME280;34475;51.658;5.634;2023-03-03T04:36:00;102270;;;1.0;100.0
48680;BME280;34475;51.658;5.634;2023-03-03T04:37:00;102270;;;1.0;100.0
48680;BME280;34475;51.658;5.634;2023-03-03T04:38:00;102260;;;0.9;100.0
48680;BME280;34475;51.658;5.634;2023-03-03T04:39:00;102260;;;0.9;100.0
48680;BME280;34475;51.658;5.634;2023-03-03T04:40:00;102260;;;1.0;100.0
48680;BME280;34475;51.658;5.634;2023-03-03T04:41:00;102260;;;1.0;100.0
48680;BME280;34475;51.658;5.634;2023-03-03T04:42:00;102260;;;1.1;100.0
48680;BME280;34475;51.658;5.634;2023-03-03T04:43:00;102260;;;1.1;100.0
48680;BME280;34475;51.658;5.634;2023-03-03T04:44:00;102270;;;1.2;100.0
48680;BME280;34475;51.658;5.634;2023-03-03T04:45:00;102270;;;1.2;100.0
48680;BME280;34475;51.658;5.634;2023-03-03T04:46:00;102260;;;1.3;100.0
48680;BME280;34475;51.658;5.634;2023-03-03T04:47:00;102260;;;1.3;100.0
48680;BME280;34475;51.658;5.634;2023-03-03T04:48:00;102260;;;1.0;100.0
48680;BME280;34475;51.658;5.634;2023-03-03T04:49:00;102260;;;1.0;100.0
48680;BME280;34475;51.658;5.634;2023-03-03T04:50:00;102260;;;1.1;100.0
48680;BME280;34475;51.658;5.634;2023-03-03T04:51:00;102260;;;1.1;100.0
48680;BME280;34475;51.658;5.634;2023-03-03T04:52:00;102260;;;1.0;100.0
48680;BME280;34475;51.658;5.634;2023-03-03T04:53:00;102260;;;1.0;100.0
48680;BME280;34475;51.658;5.634;2023-03-03T04:54:00;102260;;;0.9;100.0
48680;BME280;34475;51.658;5.634;2023-03-03T04:55:00;102260;;;0.9;100.0
48680;BME280;34475;51.658;5.634;2023-03-03T04:56:00;102260;;;1.0;100.0
48680;BME280;34475;51.658;5.634;2023-03-03T04:57:00;102260;;;1.0;100.0
48680;BME280;34475;51.658;5.634;2023-03-03T04:58:00;102260;;;1.1;100.0
48680;BME280;34475;51.658;5.634;2023-03-03T04:59:00;102260;;;1.1;100.0
48680;BME280;34475;51.658;5.634;2023-03-03T05:00:00;102270;;;1.2;100.0
48680;BME280;34475;51.658;5.634;2023-03-03T05:01:00;102270;;;1.2;100.0
48680;BME280;34475;51.658;5.634;2023-03-03T05:02:00;102260;;;1.1;100.0
48680;BME280;34475;51.658;5.634;2023-03-03T05:03:00;102260;;;1.1;100.0
48680;BME280;34475;51.658;5.634;2023-03-03T05:04:00;102260;;;1.1;100.0
48680;BME280;34475;51.658;5.634;2023-03-03T05:05:00;102260;;;1.1;100.0
48680;BME280;34475;51.658;5.634;2023-03-03T05:06:00;102270;;;1.2;100.0
48680;BME280;34475;51.658;5.634;2023-03-03T05:07:00;102270;;;1.2;100.0
48680;BME280;34475;51.658;5.634;2023-03-03T05:08:00;102270;;;1.2;100.0
48680;BME280;34475;51.658;5.634;2023-03-03T05:09:00;102270;;;1.2;100.0
48680;BME280;34475;51.658;5.634;2023-03-03T05:10:00;102270;;;1.1;100.0
48680;BME280;34475;51.658;5.634;2023-03-03T05:11:00;102270;;;1.1;100.0
48680;BME280;34475;51.658;5.634;2023-03-03T05:12:00;102270;;;1.1;100.0
48680;BME280;34475;51.658;5.634;2023-03-03T05:13:00;102270;;;1.1;100.0
48680;BME280;34475;51.658;5.634;2023-03-03T05:14:00;102270;;;1.2;100.0
48680;BME280;34475;51.658;5.634;2023-03-03T05:15:00;102270;;;1.2;100.0
48680;BME280;34475;51.658;5.634;2023-03-03T05:16:00;102270;;;1.2;100.0
48680;BME280;34475;51.658;5.634;2023-03-03T05:17:01;102270;;;1.2;100.0
48680;BME280;34475;51.658;5.634;2023-03-03T05:18:00;102270;;;1.3;100.0
48680;BME280;34475;51.658;5.634;2023-03-03T05:19:00;102270;;;1.3;100.0
48680;BME280;34475;51.658;5.634;2023-03-03T05:20:00;102270;;;1.3;100.0
48680;BME280;34475;51.658;5.634;2023-03-03T05:21:00;102270;;;1.3;100.0
48680;BME280;34475;51.658;5.634;2023-03-03T05:22:00;102270;;;1.3;100.0
48680;BME280;34475;51.658;5.634;2023-03-03T05:23:00;102270;;;1.3;100.0
48680;BME280;34475;51.658;5.634;2023-03-03T05:24:00;102270;;;1.4;100.0
48680;BME280;34475;51.658;5.634;2023-03-03T05:25:00;102270;;;1.4;100.0
48680;BME280;34475;51.658;5.634;2023-03-03T05:26:00;102280;;;1.3;100.0
48680;BME280;34475;51.658;5.634;2023-03-03T05:27:00;102280;;;1.3;100.0
48680;BME280;34475;51.658;5.634;2023-03-03T05:28:00;102270;;;1.4;100.0
48680;BME280;34475;51.658;5.634;2023-03-03T05:29:00;102270;;;1.4;100.0
48680;BME280;34475;51.658;5.634;2023-03-03T05:30:00;102270;;;1.5;100.0
48680;BME280;34475;51.658;5.634;2023-03-03T05:31:00;102270;;;1.5;100.0
48680;BME280;34475;51.658;5.634;2023-03-03T05:32:00;102270;;;1.5;100.0
48680;BME280;34475;51.658;5.634;2023-03-03T05:33:00;102270;;;1.5;100.0
48680;BME280;34475;51.658;5.634;2023-03-03T05:34:00;102280;;;1.5;100.0
48680;BME280;34475;51.658;5.634;2023-03-03T05:35:00;102280;;;1.5;100.0
48680;BME280;34475;51.658;5.634;2023-03-03T05:36:00;102270;;;1.3;100.0
48680;BME280;34475;51.658;5.634;2023-03-03T05:37:00;102270;;;1.3;100.0
48680;BME280;34475;51.658;5.634;2023-03-03T05:38:00;102270;;;1.3;100.0
48680;BME280;34475;51.658;5.634;2023-03-03T05:39:00;102270;;;1.3;100.0
48680;BME280;34475;51.658;5.634;2023-03-03T05:40:00;102270;;;1.4;100.0
48680;BME280;34475;51.658;5.634;2023-03-03T05:41:00;102270;;;1.4;100.0
48680;BME280;34475;51.658;5.634;2023-03-03T05:42:00;102270;;;1.4;100.0
48680;BME280;34475;51.658;5.634;2023-03-03T05:43:00;102270;;;1.4;100.0
48680;BME280;34475;51.658;5.634;2023-03-03T05:44:00;102270;;;1.2;100.0